Terminal Aerodrome Forecast
Issued by NWS Buffalo, NY

Home | Current Version | Previous Version | Text Only | Print | Product List | Glossary On
Versions: 1 2 3 4 5 6 7 8 9 10 11 12 13 14 15 16 17 18 19 20 21 22 23 24
547
FTUS41 KBUF 291503 AAA
TAFROC
TAF AMD
KROC 291503Z 2915/3012 28006KT P6SM BKN100
     FM291800 23005KT P6SM VCSH SCT045 BKN080
      TEMPO 2919/2922 4SM TSRA BKN040CB
     FM292200 22005KT P6SM VCSH OVC080
     FM300000 19005KT P6SM OVC100
     FM300900 22009KT P6SM BKN200=

USA.gov is the U.S. government's official web portal to all federal, state and local government web resources and services.